Latest Weather Observations for Spitfire Channel

IDQ60801

Issued at 8:35 am EST Friday 25 April 2014 (issued every 30 minutes, with the page automatically refreshed every 10 minutes)

About weather observations | Map of weather stations | Latest weather observations for QLD | Other Formats
Station Details ID: 040927 Name: SPITFIRE CHANNEL BEACON Lat: -27.05 Lon: 153.27 Height: 7.0 m
Data from the previous 72 hours. | See also: Recent months for locations in Queensland
Date/Time
EST
Temp
°C
App
Temp
°C
Dew
Point
Rel
Hum
%
Delta-T
°C
Wind Press
QNH
hPa
Press
MSL
hPa
Rain
since 9 am
mm
Dir
 
Spd
km/h
Gust
km/h
Spd
kts
Gust
kts
25/08:30am - - - - - S 17 19 9 10 - - -
25/08:00am - - - - - S 17 19 9 10 - - -
25/07:30am - - - - - S 17 19 9 10 - - -
25/07:00am - - - - - S 15 17 8 9 - - -
25/06:30am - - - - - SSW 17 19 9 10 - - -
25/06:00am - - - - - SSW 15 17 8 9 - - -
25/05:30am - - - - - SSW 15 17 8 9 - - -
25/05:00am - - - - - SSW 15 17 8 9 - - -
25/04:30am - - - - - S 13 15 7 8 - - -
25/04:00am - - - - - S 13 15 7 8 - - -
25/03:30am - - - - - S 11 13 6 7 - - -
25/03:00am - - - - - S 11 13 6 7 - - -
25/02:30am - - - - - SSW 11 13 6 7 - - -
25/02:00am - - - - - SSW 11 13 6 7 - - -
25/01:30am - - - - - SSW 13 15 7 8 - - -
25/01:00am - - - - - SSW 13 15 7 8 - - -
25/12:30am - - - - - SW 11 13 6 7 - - -
25/12:00am - - - - - SW 9 11 5 6 - - -
 
Date/Time
EST
Temp
°C
App
Temp
°C
Dew
Point
Rel
Hum
%
Delta-T
°C
Wind Press
QNH
hPa
Press
MSL
hPa
Rain
since 9 am
mm
Dir
 
Spd
km/h
Gust
km/h
Spd
kts
Gust
kts
24/11:30pm - - - - - WSW 9 11 5 6 - - -
24/11:00pm - - - - - NNE 7 11 4 6 - - -
24/10:30pm - - - - - N 13 15 7 8 - - -
24/10:00pm - - - - - NNE 13 15 7 8 - - -
24/09:30pm - - - - - NNE 11 13 6 7 - - -
24/09:00pm - - - - - NNE 11 13 6 7 - - -
24/08:30pm - - - - - NE 13 15 7 8 - - -
24/08:00pm - - - - - NE 17 19 9 10 - - -
24/07:30pm - - - - - NNE 15 19 8 10 - - -
24/07:00pm - - - - - NNE 17 19 9 10 - - -
24/06:30pm - - - - - NE 17 20 9 11 - - -
24/06:00pm - - - - - NE 19 20 10 11 - - -
24/05:30pm - - - - - NE 19 20 10 11 - - -
24/05:00pm - - - - - NE 11 13 6 7 - - -
24/04:30pm - - - - - NNE 13 15 7 8 - - -
24/04:00pm - - - - - NNE 9 11 5 6 - - -
24/03:30pm - - - - - NE 7 9 4 5 - - -
24/03:00pm - - - - - NE 6 9 3 5 - - -
24/02:30pm - - - - - ENE 6 7 3 4 - - -
24/02:00pm - - - - - E 4 6 2 3 - - -
24/01:30pm - - - - - SE 4 4 2 2 - - -
24/01:00pm - - - - - SSE 6 7 3 4 - - -
24/12:30pm - - - - - S 6 7 3 4 - - -
24/12:00pm - - - - - S 11 13 6 7 - - -
24/11:30am - - - - - S 11 15 6 8 - - -
24/11:00am - - - - - S 11 15 6 8 - - -
24/10:30am - - - - - S 15 17 8 9 - - -
24/10:00am - - - - - S 15 17 8 9 - - -
24/09:30am - - - - - S 17 19 9 10 - - -
24/09:00am - - - - - SSW 15 17 8 9 - - -
24/08:30am - - - - - SSW 13 17 7 9 - - -
24/08:00am - - - - - S 17 19 9 10 - - -
24/07:30am - - - - - SSW 15 19 8 10 - - -
24/07:00am - - - - - S 15 19 8 10 - - -
24/06:30am - - - - - S 19 22 10 12 - - -
24/06:00am - - - - - S 17 20 9 11 - - -
24/05:30am - - - - - S 17 20 9 11 - - -
24/05:00am - - - - - S 15 19 8 10 - - -
24/04:30am - - - - - S 9 13 5 7 - - -
24/04:00am - - - - - S 11 13 6 7 - - -
24/03:30am - - - - - S 9 13 5 7 - - -
24/03:00am - - - - - S 6 7 3 4 - - -
24/02:30am - - - - - S 7 9 4 5 - - -
24/02:00am - - - - - SSW 7 9 4 5 - - -
24/01:30am - - - - - S 6 7 3 4 - - -
24/01:00am - - - - - S 6 9 3 5 - - -
24/12:30am - - - - - S 6 6 3 3 - - -
24/12:00am - - - - - SSW 4 4 2 2 - - -
 
Date/Time
EST
Temp
°C
App
Temp
°C
Dew
Point
Rel
Hum
%
Delta-T
°C
Wind Press
QNH
hPa
Press
MSL
hPa
Rain
since 9 am
mm
Dir
 
Spd
km/h
Gust
km/h
Spd
kts
Gust
kts
23/11:30pm - - - - - SSW 2 4 1 2 - - -
23/11:00pm - - - - - WSW 2 4 1 2 - - -
23/10:30pm - - - - - WNW 4 6 2 3 - - -
23/10:00pm - - - - - WNW 9 13 5 7 - - -
23/09:30pm - - - - - WNW 13 15 7 8 - - -
23/09:00pm - - - - - WNW 11 13 6 7 - - -
23/08:30pm - - - - - NW 15 17 8 9 - - -
23/08:00pm - - - - - NW 17 19 9 10 - - -
23/07:30pm - - - - - NW 19 22 10 12 - - -
23/07:00pm - - - - - NW 20 26 11 14 - - -
23/06:30pm - - - - - NNW 28 33 15 18 - - -
23/06:00pm - - - - - N 17 19 9 10 - - -
23/05:30pm - - - - - NNE 15 19 8 10 - - -
23/05:00pm - - - - - NNE 17 19 9 10 - - -
23/04:30pm - - - - - NNE 15 19 8 10 - - -
23/04:00pm - - - - - NNE 13 17 7 9 - - -
23/03:30pm - - - - - NE 13 15 7 8 - - -
23/03:00pm - - - - - NNE 11 13 6 7 - - -
23/02:30pm - - - - - NE 4 7 2 4 - - -
23/02:00pm - - - - - ENE 2 4 1 2 - - -
23/01:30pm - - - - - CALM 0 0 0 0 - - -
23/01:00pm - - - - - SSE 7 9 4 5 - - -
23/12:30pm - - - - - SSE 6 7 3 4 - - -
23/12:00pm - - - - - SSE 11 13 6 7 - - -
23/11:30am - - - - - SSE 11 13 6 7 - - -
23/11:00am - - - - - SSE 11 13 6 7 - - -
23/10:30am - - - - - SSE 13 15 7 8 - - -
23/10:00am - - - - - S 15 17 8 9 - - -
23/09:30am - - - - - S 13 15 7 8 - - -
23/09:00am - - - - - S 17 19 9 10 - - -
23/08:30am - - - - - S 17 20 9 11 - - -
23/08:00am - - - - - S 15 17 8 9 - - -
23/07:30am - - - - - S 11 15 6 8 - - -
23/07:00am - - - - - S 11 13 6 7 - - -
23/06:30am - - - - - S 13 15 7 8 - - -
23/06:00am - - - - - SSW 13 15 7 8 - - -
23/05:30am - - - - - SSW 11 13 6 7 - - -
23/05:00am - - - - - S 9 11 5 6 - - -
23/04:30am - - - - - SSW 9 11 5 6 - - -
23/04:00am - - - - - SSW 7 7 4 4 - - -
23/03:30am - - - - - SW 6 7 3 4 - - -
23/03:00am - - - - - SW 6 7 3 4 - - -
23/02:30am - - - - - SSW 9 11 5 6 - - -
23/02:00am - - - - - SSW 9 11 5 6 - - -
23/01:30am - - - - - SW 11 13 6 7 - - -
23/01:00am - - - - - WSW 7 9 4 5 - - -
23/12:30am - - - - - W 7 9 4 5 - - -
23/12:00am - - - - - W 11 13 6 7 - - -
 
Date/Time
EST
Temp
°C
App
Temp
°C
Dew
Point
Rel
Hum
%
Delta-T
°C
Wind Press
QNH
hPa
Press
MSL
hPa
Rain
since 9 am
mm
Dir
 
Spd
km/h
Gust
km/h
Spd
kts
Gust
kts
22/11:30pm - - - - - WNW 11 15 6 8 - - -
22/11:00pm - - - - - N 13 17 7 9 - - -
22/10:30pm - - - - - N 13 17 7 9 - - -
22/10:00pm - - - - - N 15 17 8 9 - - -
22/09:30pm - - - - - N 15 17 8 9 - - -
22/09:00pm - - - - - N 15 17 8 9 - - -
22/08:30pm - - - - - NNE 17 20 9 11 - - -
22/08:00pm - - - - - NNE 19 20 10 11 - - -
22/07:30pm - - - - - NNE 15 19 8 10 - - -
22/07:00pm - - - - - NNE 13 19 7 10 - - -
22/06:30pm - - - - - NE 15 17 8 9 - - -
22/06:00pm - - - - - NE 15 17 8 9 - - -
22/05:30pm - - - - - NE 13 17 7 9 - - -
22/05:00pm - - - - - NE 13 17 7 9 - - -
22/04:30pm - - - - - NE 13 17 7 9 - - -
22/04:00pm - - - - - NE 15 19 8 10 - - -
22/03:30pm - - - - - NE 17 19 9 10 - - -
22/03:00pm - - - - - NE 17 20 9 11 - - -
22/02:30pm - - - - - NNE 15 19 8 10 - - -
22/02:00pm - - - - - NNE 13 15 7 8 - - -
22/01:30pm - - - - - NE 7 7 4 4 - - -
22/01:00pm - - - - - NE 6 7 3 4 - - -
22/12:30pm - - - - - ENE 4 6 2 3 - - -
22/12:00pm - - - - - ESE 6 6 3 3 - - -
22/11:30am - - - - - S 6 7 3 4 - - -
22/11:00am - - - - - S 7 7 4 4 - - -
22/10:30am - - - - - S 9 11 5 6 - - -
22/10:00am - - - - - S 11 13 6 7 - - -
22/09:30am - - - - - S 11 13 6 7 - - -
22/09:00am - - - - - S 11 13 6 7 - - -

Other Formats:

Comma delimited format used in spreadsheet applications
http://www.bom.gov.au/fwo/IDQ60801/IDQ60801.94581.axf

JavaScript Object Notation format (JSON) in row-major order
http://www.bom.gov.au/fwo/IDQ60801/IDQ60801.94581.json